sensor_id;sensor_type;location;lat;lon;timestamp;temperature;humidity
19359;DHT22;9815;52.334;20.890;2023-05-07T00:01:56;6.00;99.90
19359;DHT22;9815;52.334;20.890;2023-05-07T00:04:24;6.00;99.90
19359;DHT22;9815;52.334;20.890;2023-05-07T00:06:54;6.00;99.90
19359;DHT22;9815;52.334;20.890;2023-05-07T00:09:22;5.90;99.90
19359;DHT22;9815;52.334;20.890;2023-05-07T00:11:50;5.90;99.90
19359;DHT22;9815;52.334;20.890;2023-05-07T00:14:18;6.00;99.90
19359;DHT22;9815;52.334;20.890;2023-05-07T00:16:47;6.00;99.90
19359;DHT22;9815;52.334;20.890;2023-05-07T00:19:15;6.00;99.90
19359;DHT22;9815;52.334;20.890;2023-05-07T00:21:43;6.00;99.90
19359;DHT22;9815;52.334;20.890;2023-05-07T00:24:13;6.10;99.90
19359;DHT22;9815;52.334;20.890;2023-05-07T00:26:41;6.00;99.90
19359;DHT22;9815;52.334;20.890;2023-05-07T00:29:09;6.00;99.90
19359;DHT22;9815;52.334;20.890;2023-05-07T00:31:37;6.00;99.90
19359;DHT22;9815;52.334;20.890;2023-05-07T00:34:05;6.00;99.90
19359;DHT22;9815;52.334;20.890;2023-05-07T00:36:33;6.00;99.90
19359;DHT22;9815;52.334;20.890;2023-05-07T00:39:02;5.90;99.90
19359;DHT22;9815;52.334;20.890;2023-05-07T00:41:31;6.00;99.90
19359;DHT22;9815;52.334;20.890;2023-05-07T00:43:59;5.90;99.90
19359;DHT22;9815;52.334;20.890;2023-05-07T00:46:28;6.00;99.90
19359;DHT22;9815;52.334;20.890;2023-05-07T00:48:59;5.90;99.90
19359;DHT22;9815;52.334;20.890;2023-05-07T00:51:27;5.90;99.90
19359;DHT22;9815;52.334;20.890;2023-05-07T00:53:56;6.00;99.90
19359;DHT22;9815;52.334;20.890;2023-05-07T00:56:24;6.00;99.90
19359;DHT22;9815;52.334;20.890;2023-05-07T00:58:54;6.00;99.90
19359;DHT22;9815;52.334;20.890;2023-05-07T01:01:23;6.00;99.90
19359;DHT22;9815;52.334;20.890;2023-05-07T01:03:51;6.00;99.90
19359;DHT22;9815;52.334;20.890;2023-05-07T01:06:20;5.90;99.90
19359;DHT22;9815;52.334;20.890;2023-05-07T01:08:49;5.90;99.90
19359;DHT22;9815;52.334;20.890;2023-05-07T01:11:19;5.90;99.90
19359;DHT22;9815;52.334;20.890;2023-05-07T01:13:49;5.90;99.90
19359;DHT22;9815;52.334;20.890;2023-05-07T01:16:19;5.90;99.90
19359;DHT22;9815;52.334;20.890;2023-05-07T01:18:48;5.90;99.90
19359;DHT22;9815;52.334;20.890;2023-05-07T01:21:16;5.90;99.90
19359;DHT22;9815;52.334;20.890;2023-05-07T01:23:47;5.90;99.90
19359;DHT22;9815;52.334;20.890;2023-05-07T01:26:15;5.90;99.90
19359;DHT22;9815;52.334;20.890;2023-05-07T01:28:46;5.90;99.90
19359;DHT22;9815;52.334;20.890;2023-05-07T01:31:14;5.90;99.90
19359;DHT22;9815;52.334;20.890;2023-05-07T01:33:45;5.80;99.90
19359;DHT22;9815;52.334;20.890;2023-05-07T01:36:14;5.80;99.90
19359;DHT22;9815;52.334;20.890;2023-05-07T01:38:43;5.80;99.90
19359;DHT22;9815;52.334;20.890;2023-05-07T01:41:14;5.80;99.90
19359;DHT22;9815;52.334;20.890;2023-05-07T01:43:42;5.80;99.90
19359;DHT22;9815;52.334;20.890;2023-05-07T01:46:11;5.70;99.90
19359;DHT22;9815;52.334;20.890;2023-05-07T01:48:39;5.70;99.90
19359;DHT22;9815;52.334;20.890;2023-05-07T01:51:08;5.80;99.90
19359;DHT22;9815;52.334;20.890;2023-05-07T01:53:37;5.80;99.90
19359;DHT22;9815;52.334;20.890;2023-05-07T01:56:06;5.80;99.90
19359;DHT22;9815;52.334;20.890;2023-05-07T01:58:38;5.70;99.90
19359;DHT22;9815;52.334;20.890;2023-05-07T02:01:07;5.70;99.90
19359;DHT22;9815;52.334;20.890;2023-05-07T02:03:35;5.70;99.90
19359;DHT22;9815;52.334;20.890;2023-05-07T02:06:10;5.70;99.90
19359;DHT22;9815;52.334;20.890;2023-05-07T02:08:39;5.70;99.90
19359;DHT22;9815;52.334;20.890;2023-05-07T02:11:08;5.70;99.90
19359;DHT22;9815;52.334;20.890;2023-05-07T02:13:37;5.60;99.90
19359;DHT22;9815;52.334;20.890;2023-05-07T02:16:06;5.60;99.90
19359;DHT22;9815;52.334;20.890;2023-05-07T02:18:34;5.60;99.90
19359;DHT22;9815;52.334;20.890;2023-05-07T02:21:03;5.60;99.90
19359;DHT22;9815;52.334;20.890;2023-05-07T02:23:31;5.60;99.90
19359;DHT22;9815;52.334;20.890;2023-05-07T02:26:00;5.70;99.90
19359;DHT22;9815;52.334;20.890;2023-05-07T02:28:28;5.70;99.90
19359;DHT22;9815;52.334;20.890;2023-05-07T02:31:02;5.60;99.90
19359;DHT22;9815;52.334;20.890;2023-05-07T02:33:31;5.60;99.90
19359;DHT22;9815;52.334;20.890;2023-05-07T02:36:06;5.60;99.90
19359;DHT22;9815;52.334;20.890;2023-05-07T02:38:36;5.60;99.90
19359;DHT22;9815;52.334;20.890;2023-05-07T02:41:05;5.60;99.90
19359;DHT22;9815;52.334;20.890;2023-05-07T02:43:33;5.70;99.90
19359;DHT22;9815;52.334;20.890;2023-05-07T02:46:03;5.60;99.90
19359;DHT22;9815;52.334;20.890;2023-05-07T02:48:34;5.60;99.90
19359;DHT22;9815;52.334;20.890;2023-05-07T02:51:03;5.60;99.90
19359;DHT22;9815;52.334;20.890;2023-05-07T02:53:34;5.60;99.90
19359;DHT22;9815;52.334;20.890;2023-05-07T02:56:02;5.60;99.90
19359;DHT22;9815;52.334;20.890;2023-05-07T02:58:31;5.60;99.90
19359;DHT22;9815;52.334;20.890;2023-05-07T03:01:00;5.60;99.90
19359;DHT22;9815;52.334;20.890;2023-05-07T03:03:40;5.60;99.90
19359;DHT22;9815;52.334;20.890;2023-05-07T03:06:08;5.50;99.90
19359;DHT22;9815;52.334;20.890;2023-05-07T03:08:37;5.60;99.90
19359;DHT22;9815;52.334;20.890;2023-05-07T03:11:05;5.60;99.90
19359;DHT22;9815;52.334;20.890;2023-05-07T03:13:33;5.60;99.90
19359;DHT22;9815;52.334;20.890;2023-05-07T03:16:01;5.60;99.90
19359;DHT22;9815;52.334;20.890;2023-05-07T03:18:29;5.60;99.90
19359;DHT22;9815;52.334;20.890;2023-05-07T03:20:59;5.60;99.90
19359;DHT22;9815;52.334;20.890;2023-05-07T03:23:27;5.60;99.90
19359;DHT22;9815;52.334;20.890;2023-05-07T03:25:55;5.50;99.90
19359;DHT22;9815;52.334;20.890;2023-05-07T03:28:23;5.60;99.90
19359;DHT22;9815;52.334;20.890;2023-05-07T03:30:57;5.60;99.90
19359;DHT22;9815;52.334;20.890;2023-05-07T03:33:25;5.70;99.90
19359;DHT22;9815;52.334;20.890;2023-05-07T03:35:54;5.60;99.90
19359;DHT22;9815;52.334;20.890;2023-05-07T03:38:26;5.70;99.90
19359;DHT22;9815;52.334;20.890;2023-05-07T03:40:54;5.70;99.90
19359;DHT22;9815;52.334;20.890;2023-05-07T03:43:22;5.70;99.90
19359;DHT22;9815;52.334;20.890;2023-05-07T03:45:58;5.70;99.90
19359;DHT22;9815;52.334;20.890;2023-05-07T03:48:28;5.70;99.90
19359;DHT22;9815;52.334;20.890;2023-05-07T03:50:58;5.70;99.90
19359;DHT22;9815;52.334;20.890;2023-05-07T03:53:32;5.70;99.90
19359;DHT22;9815;52.334;20.890;2023-05-07T03:56:00;5.70;99.90
19359;DHT22;9815;52.334;20.890;2023-05-07T03:58:33;5.70;99.90
19359;DHT22;9815;52.334;20.890;2023-05-07T04:01:06;5.70;99.90
19359;DHT22;9815;52.334;20.890;2023-05-07T04:03:35;5.70;99.90
19359;DHT22;9815;52.334;20.890;2023-05-07T04:06:04;5.70;99.90
19359;DHT22;9815;52.334;20.890;2023-05-07T04:08:35;5.70;99.90
19359;DHT22;9815;52.334;20.890;2023-05-07T04:11:05;5.70;99.90
19359;DHT22;9815;52.334;20.890;2023-05-07T04:13:35;5.70;99.90
19359;DHT22;9815;52.334;20.890;2023-05-07T04:16:06;5.80;99.90
19359;DHT22;9815;52.334;20.890;2023-05-07T04:18:36;6.00;99.90
19359;DHT22;9815;52.334;20.890;2023-05-07T04:21:04;5.80;99.90
19359;DHT22;9815;52.334;20.890;2023-05-07T04:23:37;5.90;99.90
19359;DHT22;9815;52.334;20.890;2023-05-07T04:26:09;5.80;99.90
19359;DHT22;9815;52.334;20.890;2023-05-07T04:28:41;5.90;99.90
19359;DHT22;9815;52.334;20.890;2023-05-07T04:31:09;5.90;99.90
19359;DHT22;9815;52.334;20.890;2023-05-07T04:33:38;5.90;99.90
19359;DHT22;9815;52.334;20.890;2023-05-07T04:36:10;5.90;99.90
19359;DHT22;9815;52.334;20.890;2023-05-07T04:38:54;5.80;99.90
19359;DHT22;9815;52.334;20.890;2023-05-07T04:41:22;5.90;99.90
19359;DHT22;9815;52.334;20.890;2023-05-07T04:43:51;5.90;99.90
19359;DHT22;9815;52.334;20.890;2023-05-07T04:46:22;5.90;99.90
19359;DHT22;9815;52.334;20.890;2023-05-07T04:48:51;5.90;99.90
19359;DHT22;9815;52.334;20.890;2023-05-07T04:51:19;5.90;99.90
19359;DHT22;9815;52.334;20.890;2023-05-07T04:53:49;6.20;99.90
19359;DHT22;9815;52.334;20.890;2023-05-07T04:56:18;6.20;99.90
19359;DHT22;9815;52.334;20.890;2023-05-07T04:58:47;6.20;99.90
19359;DHT22;9815;52.334;20.890;2023-05-07T05:01:18;6.30;99.90
19359;DHT22;9815;52.334;20.890;2023-05-07T05:03:47;6.20;99.90
19359;DHT22;9815;52.334;20.890;2023-05-07T05:06:15;6.30;99.90
19359;DHT22;9815;52.334;20.890;2023-05-07T05:08:43;6.30;99.90
19359;DHT22;9815;52.334;20.890;2023-05-07T05:11:12;6.40;99.90
19359;DHT22;9815;52.334;20.890;2023-05-07T05:13:41;6.50;99.90
19359;DHT22;9815;52.334;20.890;2023-05-07T05:16:15;6.50;99.90
19359;DHT22;9815;52.334;20.890;2023-05-07T05:18:44;6.30;99.90
19359;DHT22;9815;52.334;20.890;2023-05-07T05:21:14;6.40;99.90
19359;DHT22;9815;52.334;20.890;2023-05-07T05:23:45;6.50;99.90
19359;DHT22;9815;52.334;20.890;2023-05-07T05:26:17;6.50;99.90
19359;DHT22;9815;52.334;20.890;2023-05-07T05:28:46;6.60;99.90
19359;DHT22;9815;52.334;20.890;2023-05-07T05:31:16;6.50;99.90
19359;DHT22;9815;52.334;20.890;2023-05-07T05:33:46;6.50;99.90
19359;DHT22;9815;52.334;20.890;2023-05-07T05:36:13;6.50;99.90
19359;DHT22;9815;52.334;20.890;2023-05-07T05:38:43;6.50;99.90
19359;DHT22;9815;52.334;20.890;2023-05-07T05:41:12;6.50;99.90
19359;DHT22;9815;52.334;20.890;2023-05-07T05:43:40;6.60;99.90
19359;DHT22;9815;52.334;20.890;2023-05-07T05:46:11;6.40;99.90
19359;DHT22;9815;52.334;20.890;2023-05-07T05:48:39;6.40;99.90
19359;DHT22;9815;52.334;20.890;2023-05-07T05:51:09;6.40;99.90
19359;DHT22;9815;52.334;20.890;2023-05-07T05:53:37;6.50;99.90
19359;DHT22;9815;52.334;20.890;2023-05-07T05:56:06;6.50;99.90
19359;DHT22;9815;52.334;20.890;2023-05-07T05:58:36;6.50;99.90
19359;DHT22;9815;52.334;20.890;2023-05-07T06:01:06;6.50;99.90
19359;DHT22;9815;52.334;20.890;2023-05-07T06:03:37;6.50;99.90
19359;DHT22;9815;52.334;20.890;2023-05-07T06:06:11;6.40;99.90
19359;DHT22;9815;52.334;20.890;2023-05-07T06:08:42;6.50;99.90
19359;DHT22;9815;52.334;20.890;2023-05-07T06:11:13;6.50;99.90
19359;DHT22;9815;52.334;20.890;2023-05-07T06:13:44;6.50;99.90
19359;DHT22;9815;52.334;20.890;2023-05-07T06:16:14;6.60;99.90
19359;DHT22;9815;52.334;20.890;2023-05-07T06:18:44;6.70;99.90
19359;DHT22;9815;52.334;20.890;2023-05-07T06:21:14;6.60;99.90
19359;DHT22;9815;52.334;20.890;2023-05-07T06:23:43;6.60;99.90
19359;DHT22;9815;52.334;20.890;2023-05-07T06:26:11;6.60;99.90
19359;DHT22;9815;52.334;20.890;2023-05-07T06:28:43;6.60;99.90
19359;DHT22;9815;52.334;20.890;2023-05-07T06:31:14;6.60;99.90
19359;DHT22;9815;52.334;20.890;2023-05-07T06:33:49;6.70;99.90
19359;DHT22;9815;52.334;20.890;2023-05-07T06:36:18;6.80;99.90
19359;DHT22;9815;52.334;20.890;2023-05-07T06:38:48;6.90;99.90
19359;DHT22;9815;52.334;20.890;2023-05-07T06:41:16;7.10;99.90
19359;DHT22;9815;52.334;20.890;2023-05-07T06:43:44;7.10;99.90
19359;DHT22;9815;52.334;20.890;2023-05-07T06:46:27;7.10;99.90
19359;DHT22;9815;52.334;20.890;2023-05-07T06:48:57;7.10;99.90
19359;DHT22;9815;52.334;20.890;2023-05-07T06:51:27;7.20;99.90
19359;DHT22;9815;52.334;20.890;2023-05-07T06:53:58;7.20;99.90
19359;DHT22;9815;52.334;20.890;2023-05-07T06:56:26;7.10;99.90
19359;DHT22;9815;52.334;20.890;2023-05-07T06:58:54;7.20;99.90
19359;DHT22;9815;52.334;20.890;2023-05-07T07:01:22;7.30;99.90
19359;DHT22;9815;52.334;20.890;2023-05-07T07:03:50;7.30;99.90
19359;DHT22;9815;52.334;20.890;2023-05-07T07:06:22;7.50;99.90
19359;DHT22;9815;52.334;20.890;2023-05-07T07:08:50;7.40;99.90
19359;DHT22;9815;52.334;20.890;2023-05-07T07:11:18;7.50;99.90
19359;DHT22;9815;52.334;20.890;2023-05-07T07:13:46;7.60;99.90
19359;DHT22;9815;52.334;20.890;2023-05-07T07:16:14;7.60;99.90
19359;DHT22;9815;52.334;20.890;2023-05-07T07:18:45;7.70;99.90
19359;DHT22;9815;52.334;20.890;2023-05-07T07:21:13;7.80;99.90
19359;DHT22;9815;52.334;20.890;2023-05-07T07:23:43;7.80;99.90
19359;DHT22;9815;52.334;20.890;2023-05-07T07:26:11;7.90;99.90
19359;DHT22;9815;52.334;20.890;2023-05-07T07:28:43;7.90;99.90
19359;DHT22;9815;52.334;20.890;2023-05-07T07:31:14;7.90;99.90
19359;DHT22;9815;52.334;20.890;2023-05-07T07:33:43;7.90;99.90
19359;DHT22;9815;52.334;20.890;2023-05-07T07:36:11;7.90;99.90
19359;DHT22;9815;52.334;20.890;2023-05-07T07:38:40;8.00;99.90
19359;DHT22;9815;52.334;20.890;2023-05-07T07:41:10;7.90;99.90
19359;DHT22;9815;52.334;20.890;2023-05-07T07:43:38;7.90;99.90
19359;DHT22;9815;52.334;20.890;2023-05-07T07:46:06;7.90;99.90
19359;DHT22;9815;52.334;20.890;2023-05-07T07:48:34;8.00;99.90
19359;DHT22;9815;52.334;20.890;2023-05-07T07:51:02;8.20;99.90
19359;DHT22;9815;52.334;20.890;2023-05-07T07:53:31;8.30;99.90
19359;DHT22;9815;52.334;20.890;2023-05-07T07:55:59;8.30;99.90
19359;DHT22;9815;52.334;20.890;2023-05-07T07:58:34;8.30;99.90
19359;DHT22;9815;52.334;20.890;2023-05-07T08:01:04;8.40;99.90
19359;DHT22;9815;52.334;20.890;2023-05-07T08:03:33;8.50;99.90
19359;DHT22;9815;52.334;20.890;2023-05-07T08:06:02;8.60;99.90
19359;DHT22;9815;52.334;20.890;2023-05-07T08:08:33;8.70;99.90
19359;DHT22;9815;52.334;20.890;2023-05-07T08:11:01;8.70;99.90
19359;DHT22;9815;52.334;20.890;2023-05-07T08:13:33;8.90;99.90
19359;DHT22;9815;52.334;20.890;2023-05-07T08:16:02;8.90;99.90
19359;DHT22;9815;52.334;20.890;2023-05-07T08:18:30;8.90;99.90
19359;DHT22;9815;52.334;20.890;2023-05-07T08:21:01;8.80;99.90
19359;DHT22;9815;52.334;20.890;2023-05-07T08:23:30;8.80;99.90
19359;DHT22;9815;52.334;20.890;2023-05-07T08:25:59;9.00;99.90
19359;DHT22;9815;52.334;20.890;2023-05-07T08:28:29;9.10;99.90
19359;DHT22;9815;52.334;20.890;2023-05-07T08:30:58;9.10;99.90
19359;DHT22;9815;52.334;20.890;2023-05-07T08:33:31;9.10;99.90
19359;DHT22;9815;52.334;20.890;2023-05-07T08:36:00;9.30;99.90
19359;DHT22;9815;52.334;20.890;2023-05-07T08:38:28;9.30;99.90
19359;DHT22;9815;52.334;20.890;2023-05-07T08:40:56;9.30;99.90
19359;DHT22;9815;52.334;20.890;2023-05-07T08:43:26;9.30;99.90
19359;DHT22;9815;52.334;20.890;2023-05-07T08:45:55;9.30;99.90
19359;DHT22;9815;52.334;20.890;2023-05-07T08:48:29;9.20;99.90
19359;DHT22;9815;52.334;20.890;2023-05-07T08:51:06;9.30;99.90
19359;DHT22;9815;52.334;20.890;2023-05-07T08:53:35;9.80;99.90
19359;DHT22;9815;52.334;20.890;2023-05-07T08:56:05;10.20;99.90
19359;DHT22;9815;52.334;20.890;2023-05-07T08:58:34;10.30;99.90
19359;DHT22;9815;52.334;20.890;2023-05-07T09:01:07;10.00;99.90
19359;DHT22;9815;52.334;20.890;2023-05-07T09:03:40;9.90;99.90
19359;DHT22;9815;52.334;20.890;2023-05-07T09:06:09;9.70;99.90
19359;DHT22;9815;52.334;20.890;2023-05-07T09:08:38;9.70;99.90
19359;DHT22;9815;52.334;20.890;2023-05-07T09:11:07;9.90;99.90
19359;DHT22;9815;52.334;20.890;2023-05-07T09:13:37;10.10;99.90
19359;DHT22;9815;52.334;20.890;2023-05-07T09:16:10;10.30;99.90
19359;DHT22;9815;52.334;20.890;2023-05-07T09:18:44;10.30;99.90
19359;DHT22;9815;52.334;20.890;2023-05-07T09:21:15;10.50;99.90
19359;DHT22;9815;52.334;20.890;2023-05-07T09:23:45;10.50;99.90
19359;DHT22;9815;52.334;20.890;2023-05-07T09:26:16;10.40;99.90
19359;DHT22;9815;52.334;20.890;2023-05-07T09:28:44;10.50;99.90
19359;DHT22;9815;52.334;20.890;2023-05-07T09:31:13;10.40;99.90
19359;DHT22;9815;52.334;20.890;2023-05-07T09:33:45;10.40;99.90
19359;DHT22;9815;52.334;20.890;2023-05-07T09:36:14;10.40;99.90
19359;DHT22;9815;52.334;20.890;2023-05-07T09:38:42;10.20;99.90
19359;DHT22;9815;52.334;20.890;2023-05-07T09:41:11;10.20;99.90
19359;DHT22;9815;52.334;20.890;2023-05-07T09:43:54;10.40;99.90
19359;DHT22;9815;52.334;20.890;2023-05-07T09:46:30;11.10;99.90
19359;DHT22;9815;52.334;20.890;2023-05-07T09:49:06;11.80;97.00
19359;DHT22;9815;52.334;20.890;2023-05-07T09:51:41;12.50;89.30
19359;DHT22;9815;52.334;20.890;2023-05-07T09:54:11;12.60;80.40
19359;DHT22;9815;52.334;20.890;2023-05-07T09:56:43;12.30;73.40
19359;DHT22;9815;52.334;20.890;2023-05-07T09:59:14;11.90;87.60
19359;DHT22;9815;52.334;20.890;2023-05-07T10:01:44;11.70;97.40
19359;DHT22;9815;52.334;20.890;2023-05-07T10:04:15;11.20;87.30
19359;DHT22;9815;52.334;20.890;2023-05-07T10:06:46;11.10;91.20
19359;DHT22;9815;52.334;20.890;2023-05-07T10:09:15;11.00;94.00
19359;DHT22;9815;52.334;20.890;2023-05-07T10:11:43;11.00;85.20
19359;DHT22;9815;52.334;20.890;2023-05-07T10:14:12;11.50;99.90
19359;DHT22;9815;52.334;20.890;2023-05-07T10:16:43;12.50;78.60
19359;DHT22;9815;52.334;20.890;2023-05-07T10:19:16;13.10;56.50
19359;DHT22;9815;52.334;20.890;2023-05-07T10:21:54;13.10;49.10
19359;DHT22;9815;52.334;20.890;2023-05-07T10:24:26;12.80;54.60
19359;DHT22;9815;52.334;20.890;2023-05-07T10:26:59;12.30;61.10
19359;DHT22;9815;52.334;20.890;2023-05-07T10:29:35;11.60;75.30
19359;DHT22;9815;52.334;20.890;2023-05-07T10:32:19;11.00;82.40
19359;DHT22;9815;52.334;20.890;2023-05-07T10:34:59;10.70;92.10
19359;DHT22;9815;52.334;20.890;2023-05-07T10:37:28;10.90;94.60
19359;DHT22;9815;52.334;20.890;2023-05-07T10:39:56;10.90;82.50
19359;DHT22;9815;52.334;20.890;2023-05-07T10:42:26;11.00;91.70
19359;DHT22;9815;52.334;20.890;2023-05-07T10:44:56;11.40;80.70
19359;DHT22;9815;52.334;20.890;2023-05-07T10:47:29;12.20;79.40
19359;DHT22;9815;52.334;20.890;2023-05-07T10:50:23;12.70;58.30
19359;DHT22;9815;52.334;20.890;2023-05-07T10:53:27;13.00;65.70
19359;DHT22;9815;52.334;20.890;2023-05-07T10:56:26;12.80;50.60
19359;DHT22;9815;52.334;20.890;2023-05-07T10:59:31;12.70;41.30
19359;DHT22;9815;52.334;20.890;2023-05-07T11:02:14;13.30;53.40
19359;DHT22;9815;52.334;20.890;2023-05-07T11:08:02;13.30;44.00
19359;DHT22;9815;52.334;20.890;2023-05-07T11:10:48;12.50;46.20
19359;DHT22;9815;52.334;20.890;2023-05-07T11:13:44;12.10;54.60
19359;DHT22;9815;52.334;20.890;2023-05-07T11:16:22;11.90;72.90
19359;DHT22;9815;52.334;20.890;2023-05-07T11:18:59;11.70;71.90
19359;DHT22;9815;52.334;20.890;2023-05-07T11:21:35;11.80;64.90
19359;DHT22;9815;52.334;20.890;2023-05-07T11:24:13;12.10;57.30
19359;DHT22;9815;52.334;20.890;2023-05-07T11:26:50;12.70;51.10
19359;DHT22;9815;52.334;20.890;2023-05-07T11:29:21;12.90;50.70
19359;DHT22;9815;52.334;20.890;2023-05-07T11:31:55;12.90;52.10
19359;DHT22;9815;52.334;20.890;2023-05-07T11:34:29;12.90;47.80
19359;DHT22;9815;52.334;20.890;2023-05-07T11:36:58;12.60;40.30
19359;DHT22;9815;52.334;20.890;2023-05-07T11:40:06;12.20;49.50
19359;DHT22;9815;52.334;20.890;2023-05-07T11:42:36;12.00;53.10
19359;DHT22;9815;52.334;20.890;2023-05-07T11:45:05;11.70;57.10
19359;DHT22;9815;52.334;20.890;2023-05-07T11:47:34;11.60;65.00
19359;DHT22;9815;52.334;20.890;2023-05-07T11:50:04;11.50;66.60
19359;DHT22;9815;52.334;20.890;2023-05-07T11:52:33;11.50;79.60
19359;DHT22;9815;52.334;20.890;2023-05-07T11:55:02;11.60;68.80
19359;DHT22;9815;52.334;20.890;2023-05-07T11:57:33;12.10;55.70
19359;DHT22;9815;52.334;20.890;2023-05-07T12:00:02;12.90;48.90
19359;DHT22;9815;52.334;20.890;2023-05-07T12:02:41;13.40;50.20
19359;DHT22;9815;52.334;20.890;2023-05-07T12:05:09;14.20;37.80
19359;DHT22;9815;52.334;20.890;2023-05-07T12:07:38;14.20;34.80
19359;DHT22;9815;52.334;20.890;2023-05-07T12:10:06;14.10;34.80
19359;DHT22;9815;52.334;20.890;2023-05-07T12:12:40;13.60;35.30
19359;DHT22;9815;52.334;20.890;2023-05-07T12:15:09;13.40;36.70
19359;DHT22;9815;52.334;20.890;2023-05-07T12:17:38;13.40;36.20
19359;DHT22;9815;52.334;20.890;2023-05-07T12:20:08;13.50;41.30
19359;DHT22;9815;52.334;20.890;2023-05-07T12:22:37;14.10;39.60
19359;DHT22;9815;52.334;20.890;2023-05-07T12:25:06;14.10;34.40
19359;DHT22;9815;52.334;20.890;2023-05-07T12:27:37;14.30;33.90
19359;DHT22;9815;52.334;20.890;2023-05-07T12:30:09;14.30;36.90
19359;DHT22;9815;52.334;20.890;2023-05-07T12:32:38;14.30;36.20
19359;DHT22;9815;52.334;20.890;2023-05-07T12:35:07;14.40;32.90
19359;DHT22;9815;52.334;20.890;2023-05-07T12:37:36;14.60;32.00
19359;DHT22;9815;52.334;20.890;2023-05-07T12:40:05;14.40;37.00
19359;DHT22;9815;52.334;20.890;2023-05-07T12:42:35;14.40;30.30
19359;DHT22;9815;52.334;20.890;2023-05-07T12:45:12;14.10;32.30
19359;DHT22;9815;52.334;20.890;2023-05-07T12:47:43;13.30;36.00
19359;DHT22;9815;52.334;20.890;2023-05-07T12:50:13;12.90;38.10
19359;DHT22;9815;52.334;20.890;2023-05-07T12:52:43;13.50;44.70
19359;DHT22;9815;52.334;20.890;2023-05-07T12:55:14;14.10;38.00
19359;DHT22;9815;52.334;20.890;2023-05-07T12:57:45;14.40;32.40
19359;DHT22;9815;52.334;20.890;2023-05-07T13:00:15;14.80;30.60
19359;DHT22;9815;52.334;20.890;2023-05-07T13:02:44;15.30;29.80
19359;DHT22;9815;52.334;20.890;2023-05-07T13:05:13;15.50;29.40
19359;DHT22;9815;52.334;20.890;2023-05-07T13:07:41;15.60;29.90
19359;DHT22;9815;52.334;20.890;2023-05-07T13:10:19;15.50;28.70
19359;DHT22;9815;52.334;20.890;2023-05-07T13:12:47;15.50;28.30
19359;DHT22;9815;52.334;20.890;2023-05-07T13:15:17;15.80;28.80
19359;DHT22;9815;52.334;20.890;2023-05-07T13:17:46;15.80;27.80
19359;DHT22;9815;52.334;20.890;2023-05-07T13:20:14;15.80;28.80
19359;DHT22;9815;52.334;20.890;2023-05-07T13:22:42;15.60;26.00
19359;DHT22;9815;52.334;20.890;2023-05-07T13:25:10;15.60;26.50
19359;DHT22;9815;52.334;20.890;2023-05-07T13:27:39;15.50;27.50
19359;DHT22;9815;52.334;20.890;2023-05-07T13:30:07;15.30;26.90
19359;DHT22;9815;52.334;20.890;2023-05-07T13:32:37;15.40;27.60
19359;DHT22;9815;52.334;20.890;2023-05-07T13:35:06;15.60;26.40
19359;DHT22;9815;52.334;20.890;2023-05-07T13:37:35;15.80;26.50
19359;DHT22;9815;52.334;20.890;2023-05-07T13:40:03;15.90;28.00
19359;DHT22;9815;52.334;20.890;2023-05-07T13:42:32;16.00;26.80
19359;DHT22;9815;52.334;20.890;2023-05-07T13:45:00;15.80;25.30
19359;DHT22;9815;52.334;20.890;2023-05-07T13:47:30;15.80;26.10
19359;DHT22;9815;52.334;20.890;2023-05-07T13:50:00;15.90;24.90
19359;DHT22;9815;52.334;20.890;2023-05-07T13:52:28;16.00;24.60
19359;DHT22;9815;52.334;20.890;2023-05-07T13:54:56;15.90;25.80
19359;DHT22;9815;52.334;20.890;2023-05-07T13:57:25;16.00;25.60
19359;DHT22;9815;52.334;20.890;2023-05-07T13:59:53;16.00;23.90
19359;DHT22;9815;52.334;20.890;2023-05-07T14:02:22;15.80;25.80
19359;DHT22;9815;52.334;20.890;2023-05-07T14:04:50;15.90;24.40
19359;DHT22;9815;52.334;20.890;2023-05-07T14:07:19;15.80;23.90
19359;DHT22;9815;52.334;20.890;2023-05-07T14:09:47;15.80;24.40
19359;DHT22;9815;52.334;20.890;2023-05-07T14:12:15;15.80;23.60
19359;DHT22;9815;52.334;20.890;2023-05-07T14:14:43;15.80;24.30
19359;DHT22;9815;52.334;20.890;2023-05-07T14:17:12;16.00;25.20
19359;DHT22;9815;52.334;20.890;2023-05-07T14:19:40;15.90;24.60
19359;DHT22;9815;52.334;20.890;2023-05-07T14:22:08;16.20;23.60
19359;DHT22;9815;52.334;20.890;2023-05-07T14:24:38;16.40;24.00
19359;DHT22;9815;52.334;20.890;2023-05-07T14:27:06;16.30;24.30
19359;DHT22;9815;52.334;20.890;2023-05-07T14:29:34;16.20;22.90
19359;DHT22;9815;52.334;20.890;2023-05-07T14:32:03;16.40;22.60
19359;DHT22;9815;52.334;20.890;2023-05-07T14:34:31;16.20;22.70
19359;DHT22;9815;52.334;20.890;2023-05-07T14:36:59;16.00;23.30
19359;DHT22;9815;52.334;20.890;2023-05-07T14:39:28;16.30;23.30
19359;DHT22;9815;52.334;20.890;2023-05-07T14:41:57;16.50;23.80
19359;DHT22;9815;52.334;20.890;2023-05-07T14:44:25;16.60;23.20
19359;DHT22;9815;52.334;20.890;2023-05-07T14:46:53;16.50;22.40
19359;DHT22;9815;52.334;20.890;2023-05-07T14:49:21;16.70;23.40
19359;DHT22;9815;52.334;20.890;2023-05-07T14:51:50;16.80;22.50
19359;DHT22;9815;52.334;20.890;2023-05-07T14:54:18;16.90;22.10
19359;DHT22;9815;52.334;20.890;2023-05-07T14:56:46;16.90;22.20
19359;DHT22;9815;52.334;20.890;2023-05-07T14:59:16;16.80;22.50
19359;DHT22;9815;52.334;20.890;2023-05-07T15:01:47;16.80;21.60
19359;DHT22;9815;52.334;20.890;2023-05-07T15:04:16;16.50;21.80
19359;DHT22;9815;52.334;20.890;2023-05-07T15:06:44;15.80;23.00
19359;DHT22;9815;52.334;20.890;2023-05-07T15:09:12;15.50;24.10
19359;DHT22;9815;52.334;20.890;2023-05-07T15:11:41;15.40;24.70
19359;DHT22;9815;52.334;20.890;2023-05-07T15:14:09;15.70;23.00
19359;DHT22;9815;52.334;20.890;2023-05-07T15:16:38;16.20;23.60
19359;DHT22;9815;52.334;20.890;2023-05-07T15:19:06;16.00;22.50
19359;DHT22;9815;52.334;20.890;2023-05-07T15:21:35;15.80;23.00
19359;DHT22;9815;52.334;20.890;2023-05-07T15:24:03;15.80;23.10
19359;DHT22;9815;52.334;20.890;2023-05-07T15:26:32;15.90;23.50
19359;DHT22;9815;52.334;20.890;2023-05-07T15:28:59;16.30;24.10
19359;DHT22;9815;52.334;20.890;2023-05-07T15:31:29;16.50;22.20
19359;DHT22;9815;52.334;20.890;2023-05-07T15:33:59;16.40;23.10
19359;DHT22;9815;52.334;20.890;2023-05-07T15:36:28;16.40;24.20
19359;DHT22;9815;52.334;20.890;2023-05-07T15:38:57;16.30;22.30
19359;DHT22;9815;52.334;20.890;2023-05-07T15:41:25;16.20;22.30
19359;DHT22;9815;52.334;20.890;2023-05-07T15:43:53;16.20;22.30
19359;DHT22;9815;52.334;20.890;2023-05-07T15:46:22;15.90;22.90
19359;DHT22;9815;52.334;20.890;2023-05-07T15:48:52;16.20;23.80
19359;DHT22;9815;52.334;20.890;2023-05-07T15:51:21;16.00;24.10
19359;DHT22;9815;52.334;20.890;2023-05-07T15:53:49;15.90;24.70
19359;DHT22;9815;52.334;20.890;2023-05-07T15:56:19;15.90;23.50
19359;DHT22;9815;52.334;20.890;2023-05-07T15:58:47;15.90;23.10
19359;DHT22;9815;52.334;20.890;2023-05-07T16:01:15;15.80;23.10
19359;DHT22;9815;52.334;20.890;2023-05-07T16:03:43;15.30;25.50